createdAt,value
2019-03-29T00:02:11.152Z,4.00
2019-03-29T00:06:57.373Z,3.50
2019-03-29T00:11:43.698Z,3.40
2019-03-29T00:16:30.243Z,3.40
2019-03-29T00:21:16.469Z,3.30
2019-03-29T00:26:02.773Z,2.90
2019-03-29T00:30:49.010Z,2.90
2019-03-29T00:35:35.274Z,3.10
2019-03-29T00:40:21.491Z,2.90
2019-03-29T00:45:08.841Z,2.70
2019-03-29T00:49:55.104Z,2.40
2019-03-29T00:54:41.390Z,2.20
2019-03-29T00:59:27.682Z,2.00
2019-03-29T01:04:13.941Z,2.20
2019-03-29T01:09:00.220Z,2.70
2019-03-29T01:13:46.594Z,2.70
2019-03-29T01:18:32.912Z,2.60
2019-03-29T01:23:19.273Z,2.40
2019-03-29T01:28:05.765Z,2.20
2019-03-29T01:32:52.070Z,2.20
2019-03-29T01:37:38.374Z,2.10
2019-03-29T01:42:24.733Z,2.20
2019-03-29T01:47:30.028Z,2.30
2019-03-29T01:52:16.682Z,1.90
2019-03-29T01:57:03.167Z,1.70
2019-03-29T02:01:49.489Z,1.60
2019-03-29T02:06:35.890Z,1.50
2019-03-29T02:11:22.338Z,1.90
2019-03-29T02:16:08.756Z,1.80
2019-03-29T02:20:55.192Z,1.80
2019-03-29T02:25:42.430Z,1.80
2019-03-29T02:30:30.971Z,1.50
2019-03-29T02:35:17.754Z,1.00
2019-03-29T02:40:04.086Z,1.20
2019-03-29T02:44:50.330Z,1.20
2019-03-29T02:49:36.583Z,1.10
2019-03-29T02:54:22.861Z,1.30
2019-03-29T02:59:09.081Z,1.30
2019-03-29T03:03:55.326Z,1.10
2019-03-29T03:08:41.604Z,0.90
2019-03-29T03:13:27.835Z,0.70
2019-03-29T03:18:14.094Z,0.70
2019-03-29T03:23:00.389Z,0.50
2019-03-29T03:27:47.122Z,0.30
2019-03-29T03:32:33.393Z,0.80
2019-03-29T03:37:19.648Z,0.90
2019-03-29T03:42:06.393Z,0.60
2019-03-29T03:46:52.612Z,0.30
2019-03-29T03:51:38.923Z,0.40
2019-03-29T03:56:26.805Z,0.30
2019-03-29T04:01:13.323Z,0.10
2019-03-29T04:06:00.014Z,0.00
2019-03-29T04:10:46.311Z,-0.10
2019-03-29T04:15:32.623Z,0.20
2019-03-29T04:20:19.036Z,0.20
2019-03-29T04:25:05.838Z,0.10
2019-03-29T04:29:52.025Z,0.50
2019-03-29T04:34:38.313Z,0.30
2019-03-29T04:39:24.622Z,0.10
2019-03-29T04:44:10.858Z,-0.10
2019-03-29T04:48:57.104Z,-0.10
2019-03-29T04:53:43.341Z,-0.10
2019-03-29T04:58:29.633Z,-0.20
2019-03-29T05:03:15.928Z,-0.40
2019-03-29T05:08:02.187Z,0.00
2019-03-29T05:12:48.445Z,-0.20
2019-03-29T05:17:34.816Z,-0.10
2019-03-29T05:22:21.043Z,0.10
2019-03-29T05:27:07.349Z,0.00
2019-03-29T05:31:53.820Z,0.00
2019-03-29T05:36:40.283Z,0.10
2019-03-29T05:41:26.583Z,-0.10
2019-03-29T05:46:13.040Z,-0.20
2019-03-29T05:50:59.292Z,-0.10
2019-03-29T05:55:48.171Z,0.00
2019-03-29T06:00:33.502Z,0.00
2019-03-29T06:05:19.819Z,0.20
2019-03-29T06:10:06.788Z,0.10
2019-03-29T06:14:53.014Z,0.10
2019-03-29T06:19:39.346Z,0.10
2019-03-29T06:24:25.578Z,0.10
2019-03-29T06:29:11.816Z,0.00
2019-03-29T06:33:58.201Z,0.10
2019-03-29T06:38:47.065Z,0.30
2019-03-29T06:43:33.415Z,0.40
2019-03-29T06:48:19.734Z,1.10
2019-03-29T06:53:06.148Z,2.00
2019-03-29T06:57:52.442Z,2.70
2019-03-29T07:02:38.659Z,3.50
2019-03-29T07:07:24.910Z,4.30
2019-03-29T07:12:11.189Z,4.90
2019-03-29T07:16:57.457Z,5.60
2019-03-29T07:21:43.753Z,6.20
2019-03-29T07:26:30.049Z,6.80
2019-03-29T07:31:16.282Z,7.30
2019-03-29T07:36:02.494Z,7.80
2019-03-29T07:40:48.811Z,8.20
2019-03-29T07:45:36.160Z,8.60
2019-03-29T07:50:22.469Z,9.20
2019-03-29T07:55:09.585Z,9.50
2019-03-29T07:59:55.828Z,9.90
2019-03-29T08:04:42.094Z,10.20
2019-03-29T08:09:28.338Z,10.60
2019-03-29T08:14:14.995Z,10.90
2019-03-29T08:19:01.587Z,11.30
2019-03-29T08:23:47.861Z,11.90
2019-03-29T08:28:34.154Z,12.10
2019-03-29T08:33:20.454Z,12.30
2019-03-29T08:38:06.688Z,12.40
2019-03-29T08:42:53.021Z,12.50
2019-03-29T08:47:39.243Z,13.20
2019-03-29T08:52:25.529Z,13.80
2019-03-29T08:57:11.777Z,14.30
2019-03-29T09:01:58.503Z,14.70
2019-03-29T09:06:53.217Z,14.90
2019-03-29T09:11:33.344Z,15.00
2019-03-29T09:16:19.579Z,15.60
2019-03-29T09:21:06.080Z,16.10
2019-03-29T09:25:52.770Z,16.90
2019-03-29T09:30:39.100Z,17.10
2019-03-29T09:35:25.319Z,17.70
2019-03-29T09:40:14.121Z,17.60
2019-03-29T09:45:00.697Z,18.20
2019-03-29T09:49:46.958Z,18.70
2019-03-29T09:54:33.200Z,19.30
2019-03-29T09:59:22.901Z,19.00
2019-03-29T10:04:07.371Z,19.20
2019-03-29T10:08:53.709Z,19.00
2019-03-29T10:13:40.111Z,19.30
2019-03-29T10:18:26.488Z,20.10
2019-03-29T10:23:13.347Z,19.80
2019-03-29T10:27:59.954Z,18.60
2019-03-29T10:32:46.277Z,20.10
2019-03-29T10:37:32.974Z,19.70
2019-03-29T10:42:19.361Z,20.40
2019-03-29T10:47:05.914Z,21.90
2019-03-29T10:51:52.927Z,21.40
2019-03-29T10:56:39.327Z,22.00
2019-03-29T11:01:26.130Z,22.90
2019-03-29T11:06:12.772Z,22.80
2019-03-29T11:10:59.502Z,22.90
2019-03-29T11:15:45.966Z,23.60
2019-03-29T11:20:32.203Z,24.10
2019-03-29T11:25:18.939Z,23.80
2019-03-29T11:30:07.163Z,24.00
2019-03-29T11:34:53.781Z,23.50
2019-03-29T11:39:40.303Z,23.30
2019-03-29T11:44:29.869Z,23.90
2019-03-29T11:49:15.482Z,23.90
2019-03-29T11:54:02.283Z,24.40
2019-03-29T11:58:49.123Z,25.70
2019-03-29T12:03:35.487Z,25.50
2019-03-29T12:08:22.339Z,25.80
2019-03-29T12:13:11.169Z,24.80
2019-03-29T12:17:59.614Z,25.80
2019-03-29T12:22:45.947Z,25.60
2019-03-29T12:27:32.511Z,24.60
2019-03-29T12:32:19.661Z,25.60
2019-03-29T12:37:06.923Z,26.00
2019-03-29T12:41:53.544Z,27.10
2019-03-29T12:46:40.077Z,28.20
2019-03-29T12:51:26.554Z,28.10
2019-03-29T12:56:13.298Z,29.30
2019-03-29T13:01:01.171Z,29.00
2019-03-29T13:05:47.950Z,29.50
2019-03-29T13:10:34.495Z,29.40
2019-03-29T13:15:21.677Z,29.30
2019-03-29T13:20:09.923Z,30.10
2019-03-29T13:24:57.673Z,30.30
2019-03-29T13:29:44.335Z,30.50
2019-03-29T13:34:31.455Z,29.40
2019-03-29T13:39:18.516Z,28.70
2019-03-29T13:44:05.194Z,28.70
2019-03-29T13:48:51.873Z,29.20
2019-03-29T13:53:38.989Z,29.50
2019-03-29T13:58:25.556Z,30.80
2019-03-29T14:03:12.090Z,29.80
2019-03-29T14:07:59.044Z,30.60
2019-03-29T14:12:45.565Z,29.60
2019-03-29T14:17:32.105Z,31.40
2019-03-29T14:22:37.415Z,31.20
2019-03-29T14:27:23.979Z,30.40
2019-03-29T14:32:10.587Z,32.00
2019-03-29T14:36:59.348Z,30.70
2019-03-29T14:41:45.617Z,31.90
2019-03-29T14:46:32.062Z,33.00
2019-03-29T14:51:18.554Z,32.80
2019-03-29T14:56:05.257Z,33.30
2019-03-29T15:00:52.450Z,32.20
2019-03-29T15:05:39.127Z,32.80
2019-03-29T15:10:28.334Z,32.60
2019-03-29T15:15:15.007Z,32.60
2019-03-29T15:20:01.409Z,32.20
2019-03-29T15:24:48.058Z,31.70
2019-03-29T15:29:34.743Z,30.90
2019-03-29T15:34:21.861Z,30.90
2019-03-29T15:39:09.524Z,31.70
2019-03-29T15:43:56.238Z,31.90
2019-03-29T15:48:42.764Z,31.40
2019-03-29T15:53:29.408Z,31.00
2019-03-29T15:58:16.085Z,31.60
2019-03-29T16:03:02.917Z,31.20
2019-03-29T16:07:49.246Z,30.40
2019-03-29T16:12:35.730Z,30.80
2019-03-29T16:17:22.655Z,31.10
2019-03-29T16:22:09.259Z,30.80
2019-03-29T16:26:56.062Z,30.20
2019-03-29T16:31:42.779Z,29.50
2019-03-29T16:36:29.498Z,29.20
2019-03-29T16:41:16.073Z,28.90
2019-03-29T16:46:02.736Z,28.50
2019-03-29T16:50:49.206Z,28.10
2019-03-29T16:55:35.751Z,27.30
2019-03-29T17:00:22.169Z,25.90
2019-03-29T17:05:10.013Z,22.20
2019-03-29T17:09:56.655Z,19.30
2019-03-29T17:14:43.093Z,17.60
2019-03-29T17:19:29.487Z,16.80
2019-03-29T17:24:16.153Z,16.20
2019-03-29T17:29:02.499Z,15.50
2019-03-29T17:33:48.934Z,14.90
2019-03-29T17:38:35.393Z,14.30
2019-03-29T17:43:21.892Z,13.70
2019-03-29T17:48:08.449Z,13.20
2019-03-29T17:52:54.842Z,12.80
2019-03-29T17:57:41.348Z,12.60
2019-03-29T18:02:27.749Z,12.30
2019-03-29T18:07:14.457Z,12.00
2019-03-29T18:12:01.629Z,11.80
2019-03-29T18:16:48.118Z,11.60
2019-03-29T18:21:34.579Z,11.30
2019-03-29T18:26:21.191Z,11.20
2019-03-29T18:31:09.107Z,11.10
2019-03-29T18:35:56.845Z,11.00
2019-03-29T18:40:45.907Z,10.80
2019-03-29T18:45:32.571Z,10.50
2019-03-29T18:50:19.124Z,10.50
2019-03-29T18:55:05.630Z,10.40
2019-03-29T18:59:52.097Z,10.40
2019-03-29T19:04:38.666Z,10.10
2019-03-29T19:09:25.404Z,10.50
2019-03-29T19:14:11.974Z,10.30
2019-03-29T19:19:09.816Z,10.00
2019-03-29T19:23:47.642Z,9.70
2019-03-29T19:28:34.449Z,9.50
2019-03-29T19:33:20.900Z,9.10
2019-03-29T19:38:07.381Z,8.80
2019-03-29T19:42:53.959Z,8.50
2019-03-29T19:47:40.395Z,8.20
2019-03-29T19:52:26.782Z,8.20
2019-03-29T19:57:13.234Z,8.00
2019-03-29T20:01:59.790Z,7.90
2019-03-29T20:06:46.455Z,7.90
2019-03-29T20:11:33.164Z,7.50
2019-03-29T20:16:19.587Z,7.50
2019-03-29T20:21:06.020Z,7.40
2019-03-29T20:25:52.570Z,7.20
2019-03-29T20:30:39.322Z,7.10
2019-03-29T20:35:26.047Z,7.00
2019-03-29T20:40:13.359Z,6.90
2019-03-29T20:45:00.055Z,6.80
2019-03-29T20:49:46.653Z,6.70
2019-03-29T20:54:33.260Z,6.70
2019-03-29T20:59:19.983Z,6.50
2019-03-29T21:04:06.509Z,6.40
2019-03-29T21:08:53.025Z,6.30
2019-03-29T21:13:39.463Z,6.10
2019-03-29T21:18:25.996Z,6.00
2019-03-29T21:23:12.404Z,5.90
2019-03-29T21:27:59.100Z,6.00
2019-03-29T21:32:45.733Z,5.80
2019-03-29T21:37:32.288Z,5.80
2019-03-29T21:42:18.564Z,5.70
2019-03-29T21:47:05.559Z,5.80
2019-03-29T21:51:52.060Z,6.40
2019-03-29T21:56:38.359Z,6.20
2019-03-29T22:01:25.057Z,5.90
2019-03-29T22:06:11.568Z,5.60
2019-03-29T22:10:57.930Z,5.30
2019-03-29T22:15:44.446Z,5.10
2019-03-29T22:20:30.715Z,5.00
2019-03-29T22:25:17.162Z,4.70
2019-03-29T22:30:05.392Z,4.50
2019-03-29T22:34:51.789Z,4.50
2019-03-29T22:39:38.163Z,4.40
2019-03-29T22:44:24.583Z,4.20
2019-03-29T22:49:10.903Z,4.20
2019-03-29T22:53:57.366Z,4.20
2019-03-29T22:58:43.704Z,4.20
2019-03-29T23:03:30.248Z,4.00
2019-03-29T23:08:17.074Z,4.00
2019-03-29T23:13:03.720Z,4.00
2019-03-29T23:17:50.335Z,3.90
2019-03-29T23:22:36.814Z,3.80
2019-03-29T23:27:23.204Z,3.80
2019-03-29T23:32:09.669Z,3.70
2019-03-29T23:36:56.163Z,3.60
2019-03-29T23:41:42.508Z,3.40
2019-03-29T23:46:28.781Z,3.40
2019-03-29T23:51:14.996Z,3.30
2019-03-29T23:56:01.237Z,3.10
